createdAt,value
2022-08-01T00:00:08.732Z,4.97
2022-08-01T00:05:12.051Z,4.60
2022-08-01T00:10:16.279Z,4.23
2022-08-01T00:15:19.703Z,4.63
2022-08-01T00:20:22.018Z,4.40
2022-08-01T00:25:33.825Z,4.90
2022-08-01T00:30:37.520Z,5.27
2022-08-01T00:35:39.824Z,5.03
2022-08-01T00:40:42.533Z,5.13
2022-08-01T00:45:56.875Z,4.63
2022-08-01T00:50:59.343Z,4.93
2022-08-01T00:56:26.134Z,4.17
2022-08-01T01:01:39.637Z,3.63
2022-08-01T01:07:12.936Z,4.57
2022-08-01T01:12:30.115Z,5.60
2022-08-01T01:17:51.074Z,5.30
2022-08-01T01:23:50.243Z,4.23
2022-08-01T01:29:10.795Z,5.13
2022-08-01T01:34:15.348Z,5.07
2022-08-01T01:39:18.341Z,5.07
2022-08-01T01:44:39.940Z,6.67
2022-08-01T01:49:44.835Z,4.60
2022-08-01T01:54:51.415Z,4.97
2022-08-01T01:59:54.753Z,4.50
2022-08-01T02:04:59.378Z,4.93
2022-08-01T02:10:03.618Z,4.40
2022-08-01T02:15:07.173Z,4.20
2022-08-01T02:20:10.258Z,4.47
2022-08-01T02:25:25.333Z,5.47
2022-08-01T02:30:32.042Z,3.80
2022-08-01T02:36:31.474Z,4.80
2022-08-01T02:41:04.838Z,4.87
2022-08-01T02:46:09.634Z,4.30
2022-08-01T02:51:13.075Z,4.17
2022-08-01T02:56:16.956Z,4.57
2022-08-01T03:01:19.999Z,5.20
2022-08-01T03:06:22.905Z,5.60
2022-08-01T03:11:26.115Z,5.00
2022-08-01T03:16:28.466Z,5.27
2022-08-01T03:21:50.088Z,5.43
2022-08-01T03:26:53.571Z,7.23
2022-08-01T03:31:56.545Z,5.43
2022-08-01T03:37:16.435Z,5.07
2022-08-01T03:42:20.830Z,6.07
2022-08-01T03:47:26.496Z,5.37
2022-08-01T03:52:31.343Z,5.57
2022-08-01T03:57:36.792Z,5.70
2022-08-01T04:02:39.861Z,7.07
2022-08-01T04:07:56.734Z,7.20
2022-08-01T04:12:59.072Z,4.50
2022-08-01T04:18:01.450Z,5.17
2022-08-01T04:23:03.817Z,4.00
2022-08-01T04:28:08.794Z,4.27
2022-08-01T04:33:11.905Z,4.10
2022-08-01T04:38:18.397Z,3.80
2022-08-01T04:43:21.149Z,2.97
2022-08-01T04:48:25.597Z,3.13
2022-08-01T04:53:29.071Z,4.20
2022-08-01T04:58:31.370Z,3.40
2022-08-01T05:03:38.438Z,2.83
2022-08-01T05:08:42.658Z,2.57
2022-08-01T05:13:51.034Z,2.90
2022-08-01T05:18:54.185Z,3.27
2022-08-01T05:23:56.578Z,2.43
2022-08-01T05:28:58.911Z,2.97
2022-08-01T05:34:02.878Z,2.43
2022-08-01T05:39:06.106Z,2.90
2022-08-01T05:44:09.041Z,3.27
2022-08-01T05:49:11.761Z,3.30
2022-08-01T05:54:14.189Z,3.43
2022-08-01T05:59:16.870Z,3.23
2022-08-01T06:04:19.227Z,3.10
2022-08-01T06:09:21.707Z,3.20
2022-08-01T06:14:24.307Z,3.00
2022-08-01T06:19:28.582Z,2.50
2022-08-01T06:24:30.880Z,2.50
2022-08-01T06:29:33.763Z,2.50
2022-08-01T06:34:36.175Z,2.40
2022-08-01T06:39:38.554Z,3.17
2022-08-01T06:44:40.924Z,2.67
2022-08-01T06:49:43.200Z,2.50
2022-08-01T06:54:45.486Z,2.40
2022-08-01T06:59:54.215Z,2.20
2022-08-01T07:05:01.380Z,2.40
2022-08-01T07:10:07.073Z,2.17
2022-08-01T07:15:12.975Z,2.83
2022-08-01T07:20:16.604Z,2.28
2022-08-01T07:25:19.092Z,2.72
2022-08-01T07:30:21.419Z,2.15
2022-08-01T07:35:24.063Z,2.72
2022-08-01T07:40:26.843Z,2.40
2022-08-01T07:45:29.256Z,2.30
2022-08-01T07:50:34.188Z,2.50
2022-08-01T07:55:36.657Z,2.53
2022-08-01T08:00:42.061Z,3.15
2022-08-01T08:05:58.991Z,2.30
2022-08-01T08:11:02.817Z,2.60
2022-08-01T08:16:05.450Z,2.30
2022-08-01T08:21:07.935Z,2.92
2022-08-01T08:26:10.577Z,2.58
2022-08-01T08:31:25.457Z,2.10
2022-08-01T08:36:47.726Z,3.05
2022-08-01T08:41:50.620Z,2.38
2022-08-01T08:46:53.650Z,3.45
2022-08-01T08:52:00.626Z,3.08
2022-08-01T08:57:03.372Z,3.47
2022-08-01T09:02:08.267Z,3.42
2022-08-01T09:07:12.126Z,3.33
2022-08-01T09:12:17.974Z,2.88
2022-08-01T09:17:21.362Z,3.10
2022-08-01T09:22:25.844Z,3.45
2022-08-01T09:27:28.250Z,3.75
2022-08-01T09:32:35.825Z,3.47
2022-08-01T09:37:38.423Z,3.80
2022-08-01T09:42:52.990Z,3.08
2022-08-01T09:47:55.340Z,3.50
2022-08-01T09:52:58.262Z,3.72
2022-08-01T09:58:02.347Z,3.40
2022-08-01T10:03:25.124Z,3.40
2022-08-01T10:08:29.962Z,3.40
2022-08-01T10:13:36.703Z,3.50
2022-08-01T10:18:40.694Z,3.42
2022-08-01T10:23:44.376Z,3.10
2022-08-01T10:28:49.499Z,3.17
2022-08-01T10:33:53.453Z,2.70
2022-08-01T10:38:56.807Z,3.83
2022-08-01T10:43:59.265Z,3.47
2022-08-01T10:49:09.137Z,2.85
2022-08-01T10:54:13.191Z,3.15
2022-08-01T10:59:21.627Z,3.10
2022-08-01T11:04:44.272Z,2.95
2022-08-01T11:10:04.251Z,3.30
2022-08-01T11:15:13.182Z,2.75
2022-08-01T11:20:44.922Z,2.60
2022-08-01T11:26:10.123Z,4.10
2022-08-01T11:31:19.011Z,3.15
2022-08-01T11:41:47.408Z,2.88
2022-08-01T11:46:56.814Z,2.72
2022-08-01T11:52:04.093Z,3.55
2022-08-01T11:57:11.545Z,3.67
2022-08-01T12:02:30.509Z,3.92
2022-08-01T12:07:35.123Z,3.80
2022-08-01T12:12:38.976Z,3.78
2022-08-01T12:17:58.403Z,3.50
2022-08-01T12:23:04.431Z,4.05
2022-08-01T12:28:09.089Z,3.72
2022-08-01T12:33:18.996Z,4.07
2022-08-01T12:38:24.220Z,4.07
2022-08-01T12:43:28.932Z,4.07
2022-08-01T12:48:32.480Z,4.47
2022-08-01T12:53:40.644Z,3.50
2022-08-01T12:58:43.773Z,4.38
2022-08-01T13:04:01.253Z,4.10
2022-08-01T13:09:08.049Z,4.53
2022-08-01T13:14:10.942Z,4.72
2022-08-01T13:19:13.341Z,4.00
2022-08-01T13:24:16.043Z,3.63
2022-08-01T13:29:20.504Z,3.97
2022-08-01T13:34:33.962Z,3.60
2022-08-01T13:39:45.678Z,4.78
2022-08-01T13:44:48.050Z,3.80
2022-08-01T13:49:50.451Z,4.55
2022-08-01T13:54:52.901Z,4.15
2022-08-01T13:59:55.360Z,3.83
2022-08-01T14:04:59.719Z,3.70
2022-08-01T14:10:18.056Z,3.92
2022-08-01T14:15:37.694Z,4.30
2022-08-01T14:20:41.083Z,4.00
2022-08-01T14:26:03.833Z,4.15
2022-08-01T14:31:09.824Z,4.25
2022-08-01T14:36:29.969Z,4.95
2022-08-01T14:41:33.720Z,5.30
2022-08-01T14:46:36.240Z,4.63
2022-08-01T14:51:39.445Z,6.90
2022-08-01T14:56:41.781Z,13.38
2022-08-01T15:01:44.038Z,13.05
2022-08-01T15:06:46.501Z,9.85
2022-08-01T15:11:48.913Z,9.82
2022-08-01T15:16:51.302Z,6.75
2022-08-01T15:21:53.589Z,8.40
2022-08-01T15:26:55.992Z,6.88
2022-08-01T15:31:58.376Z,6.50
2022-08-01T15:37:00.795Z,5.95
2022-08-01T15:42:07.673Z,6.90
2022-08-01T15:52:31.595Z,6.63
2022-08-01T15:57:45.047Z,8.95
2022-08-01T16:02:48.013Z,8.02
2022-08-01T16:07:59.442Z,8.80
2022-08-01T16:13:07.194Z,58.20
2022-08-01T16:18:13.489Z,12.82
2022-08-01T16:23:16.173Z,15.18
2022-08-01T16:28:20.853Z,16.90
2022-08-01T16:33:47.770Z,16.98
2022-08-01T16:38:46.548Z,19.60
2022-08-01T16:43:53.764Z,14.80
2022-08-01T16:48:56.986Z,16.02
2022-08-01T16:53:59.204Z,11.80
2022-08-01T16:59:01.516Z,10.85
2022-08-01T17:04:04.448Z,10.25
2022-08-01T17:09:06.955Z,10.50
2022-08-01T17:14:09.302Z,8.98
2022-08-01T17:19:11.602Z,8.43
2022-08-01T17:24:16.558Z,8.32
2022-08-01T17:29:19.281Z,8.95
2022-08-01T17:34:21.631Z,8.55
2022-08-01T17:39:38.547Z,8.32
2022-08-01T17:44:41.818Z,7.30
2022-08-01T17:49:55.175Z,8.52
2022-08-01T17:54:58.390Z,7.93
2022-08-01T18:00:00.912Z,8.70
2022-08-01T18:05:04.884Z,8.98
2022-08-01T18:10:13.090Z,6.60
2022-08-01T18:15:22.290Z,8.05
2022-08-01T18:20:30.386Z,7.87
2022-08-01T18:25:34.332Z,10.50
2022-08-01T18:30:36.816Z,9.67
2022-08-01T18:35:52.160Z,7.70
2022-08-01T18:40:57.478Z,10.00
2022-08-01T18:46:03.418Z,10.50
2022-08-01T18:51:08.569Z,16.20
2022-08-01T18:56:15.545Z,19.08
2022-08-01T19:01:19.787Z,17.30
2022-08-01T19:06:23.652Z,12.37
2022-08-01T19:11:26.305Z,13.90
2022-08-01T19:16:29.055Z,15.20
2022-08-01T19:21:33.077Z,17.83
2022-08-01T19:26:36.501Z,11.57
2022-08-01T19:31:43.339Z,11.03
2022-08-01T19:36:53.629Z,9.60
2022-08-01T19:41:59.661Z,9.80
2022-08-01T19:47:02.405Z,10.07
2022-08-01T19:52:05.151Z,11.83
2022-08-01T19:57:08.421Z,12.57
2022-08-01T20:02:10.984Z,12.60
2022-08-01T20:07:18.667Z,10.60
2022-08-01T20:12:25.527Z,12.23
2022-08-01T20:17:27.935Z,8.67
2022-08-01T20:22:33.296Z,9.53
2022-08-01T20:27:39.115Z,10.80
2022-08-01T20:32:44.034Z,12.20
2022-08-01T20:38:06.758Z,14.17
2022-08-01T20:43:10.189Z,13.83
2022-08-01T20:48:13.022Z,12.00
2022-08-01T20:53:15.418Z,10.47
2022-08-01T20:58:30.292Z,12.83
2022-08-01T21:03:46.131Z,10.47
2022-08-01T21:08:50.255Z,15.17
2022-08-01T21:13:53.031Z,14.93
2022-08-01T21:19:21.382Z,11.47
2022-08-01T21:24:29.405Z,8.77
2022-08-01T21:29:33.617Z,6.43
2022-08-01T21:34:38.526Z,5.70
2022-08-01T21:39:41.535Z,6.37
2022-08-01T21:44:46.341Z,5.93
2022-08-01T21:49:48.684Z,6.57
2022-08-01T21:55:00.595Z,5.40
2022-08-01T22:00:10.377Z,5.60
2022-08-01T22:05:14.506Z,6.17
2022-08-01T22:10:18.140Z,5.43
2022-08-01T22:15:24.175Z,6.23
2022-08-01T22:20:28.186Z,7.47
2022-08-01T22:25:32.877Z,6.40
2022-08-01T22:30:35.702Z,6.37
2022-08-01T22:35:40.056Z,6.63
2022-08-01T22:40:48.504Z,7.10
2022-08-01T22:46:18.296Z,6.00
2022-08-01T22:51:41.619Z,6.30
2022-08-01T22:56:47.082Z,6.60
2022-08-01T23:01:51.856Z,6.47
2022-08-01T23:06:55.698Z,6.43
2022-08-01T23:11:59.810Z,6.23
2022-08-01T23:17:27.631Z,5.77
2022-08-01T23:22:33.015Z,5.90
2022-08-01T23:27:55.679Z,6.13
2022-08-01T23:33:00.392Z,5.80
2022-08-01T23:38:03.256Z,5.73
2022-08-01T23:43:17.138Z,7.03
2022-08-01T23:48:20.503Z,6.07
2022-08-01T23:53:22.875Z,5.83
2022-08-01T23:58:25.374Z,5.47
